Salley, SC (29137)

2:04 PM EST on February 08, 2016 (GMT -0500)
Pendleton Field | | Change Station
CLOSE
Current Station
Personal Weather Station
Location: Swansea, SC
Elevation: 354 ft
Nearby Weather Stations

Elev 354 ft 33.69 °N, 81.23 °W | Updated 9 seconds ago

Partly Cloudy
Partly Cloudy
61.3 °F
Feels Like 61.3 °F
N
6.0
Wind Variable Wind from South
Gusts 11.4 mph

Today
High -- | Low -- °F
--% Chance of Precip.
Yesterday
High -- | Low -- °F
Precip. -- in
Pressure 29.72 in
Visibility 10.0 miles
Clouds Mostly Cloudy 7000 ft
Overcast 8500 ft
Dew Point 21 °F
Humidity 21%
Rainfall 0.00 in
Snow Depth Not available.
7:16 AM 6:02 PM
New Moon, 0% visible
METAR KAIK 081855Z AUTO 22013G18KT 10SM BKN070 OVC085 13/M01 A2972 RMK AO2
Pressure 29.72 in
Visibility 10.0 miles
Clouds Mostly Cloudy 7000 ft
Overcast 8500 ft
Dew Point 21 °F
Humidity 21%
Rainfall 0.00 in
Snow Depth Not available.
7:16 AM 6:02 PM
New Moon, 0% visible
METAR KAIK 081855Z AUTO 22013G18KT 10SM BKN070 OVC085 13/M01 A2972 RMK AO2

10-Day Weather Forecast

Almanac

Astronomy

Feb. 08, 2016 Rise Set
Actual Time
Civil Twilight
Nautical Twilight
Astronomical Twilight
Moon
Length of Visible Light
Length of Day
Tomorrow will be .
, % of the Moon is Illuminated

Today's Extremes

State Highs State Lows

Community

WunderPhotos

Upload Photos

1,891,485 photos uploaded!

WunderBlog® & News

Nearby

Air Quality

  Air Quality AQ Index Pollutant
Not available.

Snow Depth

Station Depth Elevation

Earthquake Activity

City Distance Mag. Time & Date
Minimum magnitude displayed is 2.5.

Coastal Water Temperatures

Place Temperature

Stations

Nearby Weather Stations

Station Location Temp. Windchill Dew Point Humidity Wind Precip. Elev Updated Type
                   

Watches & Warnings

There are currently no watches in effect.